sensor_id;sensor_type;location;lat;lon;timestamp;temperature;humidity
827;DHT22;395;48.132;11.608;2022-09-17T00:00:50;13.50;13.90
827;DHT22;395;48.132;11.608;2022-09-17T00:03:17;13.60;14.80
827;DHT22;395;48.132;11.608;2022-09-17T00:05:43;13.50;15.00
827;DHT22;395;48.132;11.608;2022-09-17T00:08:11;13.50;14.70
827;DHT22;395;48.132;11.608;2022-09-17T00:10:40;13.50;14.40
827;DHT22;395;48.132;11.608;2022-09-17T00:13:07;13.50;14.00
827;DHT22;395;48.132;11.608;2022-09-17T00:15:39;13.40;13.30
827;DHT22;395;48.132;11.608;2022-09-17T00:18:05;13.40;13.30
827;DHT22;395;48.132;11.608;2022-09-17T00:20:31;13.50;13.10
827;DHT22;395;48.132;11.608;2022-09-17T00:22:56;13.40;11.70
827;DHT22;395;48.132;11.608;2022-09-17T00:25:22;13.40;11.70
827;DHT22;395;48.132;11.608;2022-09-17T00:27:47;13.40;10.30
827;DHT22;395;48.132;11.608;2022-09-17T00:30:13;13.30;9.80
827;DHT22;395;48.132;11.608;2022-09-17T00:32:39;13.20;9.90
827;DHT22;395;48.132;11.608;2022-09-17T00:35:05;13.20;11.00
827;DHT22;395;48.132;11.608;2022-09-17T00:37:31;13.20;10.50
827;DHT22;395;48.132;11.608;2022-09-17T00:39:56;13.30;11.10
827;DHT22;395;48.132;11.608;2022-09-17T00:42:22;13.30;11.10
827;DHT22;395;48.132;11.608;2022-09-17T00:44:51;13.30;10.40
827;DHT22;395;48.132;11.608;2022-09-17T00:50:04;13.20;8.70
827;DHT22;395;48.132;11.608;2022-09-17T00:52:39;13.20;8.60
827;DHT22;395;48.132;11.608;2022-09-17T00:55:19;13.20;8.80
827;DHT22;395;48.132;11.608;2022-09-17T00:57:48;13.10;9.00
827;DHT22;395;48.132;11.608;2022-09-17T01:00:15;13.10;9.30
827;DHT22;395;48.132;11.608;2022-09-17T01:02:42;13.10;10.00
827;DHT22;395;48.132;11.608;2022-09-17T01:05:09;13.10;10.70
827;DHT22;395;48.132;11.608;2022-09-17T01:10:27;13.10;10.60
827;DHT22;395;48.132;11.608;2022-09-17T01:13:22;13.20;9.50
827;DHT22;395;48.132;11.608;2022-09-17T01:16:05;13.10;8.70
827;DHT22;395;48.132;11.608;2022-09-17T01:19:29;13.10;7.90
827;DHT22;395;48.132;11.608;2022-09-17T01:38:28;13.00;8.60
827;DHT22;395;48.132;11.608;2022-09-17T01:41:09;13.00;8.70
827;DHT22;395;48.132;11.608;2022-09-17T01:43:51;13.10;8.90
827;DHT22;395;48.132;11.608;2022-09-17T01:46:43;13.00;8.60
827;DHT22;395;48.132;11.608;2022-09-17T01:49:12;13.00;9.00
827;DHT22;395;48.132;11.608;2022-09-17T01:51:43;13.00;9.70
827;DHT22;395;48.132;11.608;2022-09-17T01:54:19;13.00;9.70
827;DHT22;395;48.132;11.608;2022-09-17T01:57:03;13.00;9.10
827;DHT22;395;48.132;11.608;2022-09-17T02:04:59;13.00;8.90
827;DHT22;395;48.132;11.608;2022-09-17T02:07:28;13.00;9.30
827;DHT22;395;48.132;11.608;2022-09-17T02:10:05;13.00;9.30
827;DHT22;395;48.132;11.608;2022-09-17T02:12:36;12.90;7.80
827;DHT22;395;48.132;11.608;2022-09-17T02:15:08;12.90;8.80
827;DHT22;395;48.132;11.608;2022-09-17T02:17:44;12.90;7.50
827;DHT22;395;48.132;11.608;2022-09-17T02:20:11;12.90;6.70
827;DHT22;395;48.132;11.608;2022-09-17T02:22:46;12.80;7.40
827;DHT22;395;48.132;11.608;2022-09-17T02:25:22;12.80;6.30
827;DHT22;395;48.132;11.608;2022-09-17T02:28:43;12.70;5.40
827;DHT22;395;48.132;11.608;2022-09-17T02:30:42;12.70;5.70
827;DHT22;395;48.132;11.608;2022-09-17T02:33:11;12.70;6.50
827;DHT22;395;48.132;11.608;2022-09-17T02:35:38;12.60;6.20
827;DHT22;395;48.132;11.608;2022-09-17T02:38:04;12.60;6.60
827;DHT22;395;48.132;11.608;2022-09-17T02:40:34;12.50;6.10
827;DHT22;395;48.132;11.608;2022-09-17T02:43:18;12.50;6.90
827;DHT22;395;48.132;11.608;2022-09-17T02:46:07;12.50;7.60
827;DHT22;395;48.132;11.608;2022-09-17T02:54:10;12.40;7.80
827;DHT22;395;48.132;11.608;2022-09-17T03:05:22;12.50;5.70
827;DHT22;395;48.132;11.608;2022-09-17T03:07:48;12.40;6.30
827;DHT22;395;48.132;11.608;2022-09-17T03:10:15;12.50;6.40
827;DHT22;395;48.132;11.608;2022-09-17T03:12:41;12.50;5.20
827;DHT22;395;48.132;11.608;2022-09-17T03:15:07;12.40;5.70
827;DHT22;395;48.132;11.608;2022-09-17T03:17:33;12.50;6.10
827;DHT22;395;48.132;11.608;2022-09-17T03:19:58;12.40;5.20
827;DHT22;395;48.132;11.608;2022-09-17T03:22:24;12.30;5.10
827;DHT22;395;48.132;11.608;2022-09-17T03:24:50;12.30;6.00
827;DHT22;395;48.132;11.608;2022-09-17T03:27:16;12.30;5.10
827;DHT22;395;48.132;11.608;2022-09-17T03:29:42;12.20;5.00
827;DHT22;395;48.132;11.608;2022-09-17T03:32:07;12.20;5.50
827;DHT22;395;48.132;11.608;2022-09-17T03:34:33;12.10;5.00
827;DHT22;395;48.132;11.608;2022-09-17T03:36:59;12.10;5.60
827;DHT22;395;48.132;11.608;2022-09-17T03:39:25;12.10;6.00
827;DHT22;395;48.132;11.608;2022-09-17T03:41:50;12.10;6.20
827;DHT22;395;48.132;11.608;2022-09-17T03:44:16;12.10;6.50
827;DHT22;395;48.132;11.608;2022-09-17T03:46:44;12.10;6.80
827;DHT22;395;48.132;11.608;2022-09-17T03:49:10;12.10;7.10
827;DHT22;395;48.132;11.608;2022-09-17T03:51:35;12.20;7.30
827;DHT22;395;48.132;11.608;2022-09-17T03:54:01;12.10;7.00
827;DHT22;395;48.132;11.608;2022-09-17T03:56:27;12.10;6.80
827;DHT22;395;48.132;11.608;2022-09-17T03:58:57;12.10;7.40
827;DHT22;395;48.132;11.608;2022-09-17T04:01:23;11.90;7.70
827;DHT22;395;48.132;11.608;2022-09-17T04:03:49;12.00;7.80
827;DHT22;395;48.132;11.608;2022-09-17T04:06:15;12.00;7.60
827;DHT22;395;48.132;11.608;2022-09-17T04:08:40;12.00;7.60
827;DHT22;395;48.132;11.608;2022-09-17T04:11:08;11.90;7.90
827;DHT22;395;48.132;11.608;2022-09-17T04:13:34;11.80;8.60
827;DHT22;395;48.132;11.608;2022-09-17T04:16:01;11.80;9.10
827;DHT22;395;48.132;11.608;2022-09-17T04:18:27;11.80;9.50
827;DHT22;395;48.132;11.608;2022-09-17T04:20:52;11.80;9.40
827;DHT22;395;48.132;11.608;2022-09-17T04:23:18;11.80;9.20
827;DHT22;395;48.132;11.608;2022-09-17T04:25:44;11.80;9.80
827;DHT22;395;48.132;11.608;2022-09-17T04:28:10;11.70;9.80
827;DHT22;395;48.132;11.608;2022-09-17T04:30:36;11.70;10.40
827;DHT22;395;48.132;11.608;2022-09-17T04:33:02;11.70;11.00
827;DHT22;395;48.132;11.608;2022-09-17T04:35:27;11.70;10.50
827;DHT22;395;48.132;11.608;2022-09-17T04:37:54;11.80;11.10
827;DHT22;395;48.132;11.608;2022-09-17T04:40:21;11.80;11.10
827;DHT22;395;48.132;11.608;2022-09-17T04:42:47;11.80;11.40
827;DHT22;395;48.132;11.608;2022-09-17T04:45:13;11.80;12.20
827;DHT22;395;48.132;11.608;2022-09-17T04:47:39;11.80;12.20
827;DHT22;395;48.132;11.608;2022-09-17T04:50:05;11.90;11.20
827;DHT22;395;48.132;11.608;2022-09-17T04:52:31;11.90;10.10
827;DHT22;395;48.132;11.608;2022-09-17T04:54:57;11.90;10.10
827;DHT22;395;48.132;11.608;2022-09-17T04:57:23;12.00;10.70
827;DHT22;395;48.132;11.608;2022-09-17T04:59:51;12.10;10.30
827;DHT22;395;48.132;11.608;2022-09-17T05:02:16;12.10;9.90
827;DHT22;395;48.132;11.608;2022-09-17T05:04:42;12.20;9.10
827;DHT22;395;48.132;11.608;2022-09-17T05:07:08;12.10;8.90
827;DHT22;395;48.132;11.608;2022-09-17T05:09:33;12.10;9.00
827;DHT22;395;48.132;11.608;2022-09-17T05:11:59;12.20;9.80
827;DHT22;395;48.132;11.608;2022-09-17T05:14:25;12.20;9.80
827;DHT22;395;48.132;11.608;2022-09-17T05:16:50;12.20;9.10
827;DHT22;395;48.132;11.608;2022-09-17T05:19:16;12.30;8.60
827;DHT22;395;48.132;11.608;2022-09-17T05:21:41;12.30;7.80
827;DHT22;395;48.132;11.608;2022-09-17T05:24:07;12.30;7.90
827;DHT22;395;48.132;11.608;2022-09-17T05:26:33;12.30;7.40
827;DHT22;395;48.132;11.608;2022-09-17T05:28:59;12.30;8.00
827;DHT22;395;48.132;11.608;2022-09-17T05:31:24;12.20;7.40
827;DHT22;395;48.132;11.608;2022-09-17T05:33:50;12.20;7.30
827;DHT22;395;48.132;11.608;2022-09-17T05:36:15;12.30;7.10
827;DHT22;395;48.132;11.608;2022-09-17T05:38:41;12.30;7.00
827;DHT22;395;48.132;11.608;2022-09-17T05:41:07;12.30;7.80
827;DHT22;395;48.132;11.608;2022-09-17T05:43:33;12.30;7.00
827;DHT22;395;48.132;11.608;2022-09-17T05:46:03;12.40;7.60
827;DHT22;395;48.132;11.608;2022-09-17T05:48:30;12.30;6.10
827;DHT22;395;48.132;11.608;2022-09-17T05:50:55;12.30;6.60
827;DHT22;395;48.132;11.608;2022-09-17T05:53:21;12.30;6.40
827;DHT22;395;48.132;11.608;2022-09-17T05:55:47;12.20;5.90
827;DHT22;395;48.132;11.608;2022-09-17T05:58:15;12.20;5.00
827;DHT22;395;48.132;11.608;2022-09-17T06:00:42;12.20;5.00
827;DHT22;395;48.132;11.608;2022-09-17T06:03:09;12.20;3.90
827;DHT22;395;48.132;11.608;2022-09-17T06:05:35;12.10;4.90
827;DHT22;395;48.132;11.608;2022-09-17T06:08:01;12.10;4.90
827;DHT22;395;48.132;11.608;2022-09-17T06:10:27;12.10;4.90
827;DHT22;395;48.132;11.608;2022-09-17T06:12:59;12.00;5.30
827;DHT22;395;48.132;11.608;2022-09-17T06:15:26;12.00;4.90
827;DHT22;395;48.132;11.608;2022-09-17T06:17:52;12.00;4.90
827;DHT22;395;48.132;11.608;2022-09-17T06:20:18;12.00;4.80
827;DHT22;395;48.132;11.608;2022-09-17T06:22:44;12.10;4.90
827;DHT22;395;48.132;11.608;2022-09-17T06:25:10;12.10;4.90
827;DHT22;395;48.132;11.608;2022-09-17T06:27:36;12.10;4.90
827;DHT22;395;48.132;11.608;2022-09-17T06:30:03;12.10;4.90
827;DHT22;395;48.132;11.608;2022-09-17T06:32:29;12.20;4.90
827;DHT22;395;48.132;11.608;2022-09-17T06:34:55;12.10;4.10
827;DHT22;395;48.132;11.608;2022-09-17T06:37:31;12.10;4.30
827;DHT22;395;48.132;11.608;2022-09-17T06:39:57;12.00;4.60
827;DHT22;395;48.132;11.608;2022-09-17T06:42:26;11.90;4.80
827;DHT22;395;48.132;11.608;2022-09-17T06:44:53;11.90;4.80
827;DHT22;395;48.132;11.608;2022-09-17T06:47:19;12.00;4.90
827;DHT22;395;48.132;11.608;2022-09-17T06:49:45;12.00;4.90
827;DHT22;395;48.132;11.608;2022-09-17T06:52:10;12.00;4.90
827;DHT22;395;48.132;11.608;2022-09-17T06:54:36;11.90;4.80
827;DHT22;395;48.132;11.608;2022-09-17T06:57:02;12.00;4.50
827;DHT22;395;48.132;11.608;2022-09-17T06:59:27;12.00;4.10
827;DHT22;395;48.132;11.608;2022-09-17T07:01:53;12.00;4.30
827;DHT22;395;48.132;11.608;2022-09-17T07:04:19;12.10;4.70
827;DHT22;395;48.132;11.608;2022-09-17T07:06:45;12.10;4.20
827;DHT22;395;48.132;11.608;2022-09-17T07:09:11;12.10;3.80
827;DHT22;395;48.132;11.608;2022-09-17T07:11:37;12.00;3.80
827;DHT22;395;48.132;11.608;2022-09-17T07:14:03;12.00;4.40
827;DHT22;395;48.132;11.608;2022-09-17T07:16:30;12.00;4.80
827;DHT22;395;48.132;11.608;2022-09-17T07:19:03;12.00;4.90
827;DHT22;395;48.132;11.608;2022-09-17T07:21:29;11.90;4.80
827;DHT22;395;48.132;11.608;2022-09-17T07:23:54;11.90;4.80
827;DHT22;395;48.132;11.608;2022-09-17T07:26:20;11.90;4.20
827;DHT22;395;48.132;11.608;2022-09-17T07:28:46;11.90;3.90
827;DHT22;395;48.132;11.608;2022-09-17T07:31:12;12.00;4.50
827;DHT22;395;48.132;11.608;2022-09-17T07:33:39;12.00;3.70
827;DHT22;395;48.132;11.608;2022-09-17T07:36:10;12.10;2.70
827;DHT22;395;48.132;11.608;2022-09-17T07:38:36;12.10;2.40
827;DHT22;395;48.132;11.608;2022-09-17T07:41:14;12.10;1.90
827;DHT22;395;48.132;11.608;2022-09-17T07:43:41;12.20;2.00
827;DHT22;395;48.132;11.608;2022-09-17T07:46:12;12.20;2.10
827;DHT22;395;48.132;11.608;2022-09-17T07:48:38;12.30;1.30
827;DHT22;395;48.132;11.608;2022-09-17T07:51:04;12.40;1.00
827;DHT22;395;48.132;11.608;2022-09-17T07:53:29;12.40;1.00
827;DHT22;395;48.132;11.608;2022-09-17T07:55:57;12.40;1.00
827;DHT22;395;48.132;11.608;2022-09-17T07:58:27;12.50;1.00
827;DHT22;395;48.132;11.608;2022-09-17T08:01:02;12.40;1.00
827;DHT22;395;48.132;11.608;2022-09-17T08:03:29;12.50;1.00
827;DHT22;395;48.132;11.608;2022-09-17T08:06:03;12.50;1.00
827;DHT22;395;48.132;11.608;2022-09-17T08:08:31;12.40;1.00
827;DHT22;395;48.132;11.608;2022-09-17T08:11:09;12.40;1.00
827;DHT22;395;48.132;11.608;2022-09-17T08:13:35;12.40;1.00
827;DHT22;395;48.132;11.608;2022-09-17T08:16:03;12.40;1.00
827;DHT22;395;48.132;11.608;2022-09-17T08:18:30;12.40;1.00
827;DHT22;395;48.132;11.608;2022-09-17T08:21:00;12.40;1.00
827;DHT22;395;48.132;11.608;2022-09-17T08:23:27;12.50;1.00
827;DHT22;395;48.132;11.608;2022-09-17T08:25:57;12.50;1.00
827;DHT22;395;48.132;11.608;2022-09-17T08:28:26;12.50;1.00
827;DHT22;395;48.132;11.608;2022-09-17T08:30:53;12.40;1.00
827;DHT22;395;48.132;11.608;2022-09-17T08:33:19;12.50;1.00
827;DHT22;395;48.132;11.608;2022-09-17T08:35:54;12.60;1.00
827;DHT22;395;48.132;11.608;2022-09-17T08:38:24;12.70;1.00
827;DHT22;395;48.132;11.608;2022-09-17T08:46:09;12.80;1.00
827;DHT22;395;48.132;11.608;2022-09-17T08:48:46;12.90;1.00
827;DHT22;395;48.132;11.608;2022-09-17T08:51:37;13.00;1.00
827;DHT22;395;48.132;11.608;2022-09-17T08:57:49;13.00;1.00
827;DHT22;395;48.132;11.608;2022-09-17T09:00:16;13.00;1.00
827;DHT22;395;48.132;11.608;2022-09-17T09:02:53;13.10;1.00
827;DHT22;395;48.132;11.608;2022-09-17T09:05:39;13.10;1.00
827;DHT22;395;48.132;11.608;2022-09-17T09:08:25;13.10;1.00
827;DHT22;395;48.132;11.608;2022-09-17T09:10:59;13.00;1.00
827;DHT22;395;48.132;11.608;2022-09-17T09:13:30;13.00;1.00
827;DHT22;395;48.132;11.608;2022-09-17T09:16:21;12.90;1.00
827;DHT22;395;48.132;11.608;2022-09-17T09:18:50;12.70;1.00
827;DHT22;395;48.132;11.608;2022-09-17T09:26:23;12.80;1.00
827;DHT22;395;48.132;11.608;2022-09-17T09:33:56;12.70;1.00
827;DHT22;395;48.132;11.608;2022-09-17T09:36:27;12.60;1.00
827;DHT22;395;48.132;11.608;2022-09-17T09:39:03;12.60;1.00
827;DHT22;395;48.132;11.608;2022-09-17T09:42:00;12.60;1.00
827;DHT22;395;48.132;11.608;2022-09-17T09:44:29;12.60;1.00
827;DHT22;395;48.132;11.608;2022-09-17T10:00:38;12.80;1.00
827;DHT22;395;48.132;11.608;2022-09-17T10:05:35;12.90;1.00
827;DHT22;395;48.132;11.608;2022-09-17T10:08:12;12.70;1.00
827;DHT22;395;48.132;11.608;2022-09-17T10:13:26;12.60;1.00
827;DHT22;395;48.132;11.608;2022-09-17T10:15:52;12.60;2.30
827;DHT22;395;48.132;11.608;2022-09-17T10:18:23;12.50;2.60
827;DHT22;395;48.132;11.608;2022-09-17T10:20:59;12.10;9.10
827;DHT22;395;48.132;11.608;2022-09-17T10:23:33;12.00;9.60
827;DHT22;395;48.132;11.608;2022-09-17T10:26:00;11.90;11.40
827;DHT22;395;48.132;11.608;2022-09-17T10:28:31;11.80;11.70
827;DHT22;395;48.132;11.608;2022-09-17T10:30:59;11.80;13.50
827;DHT22;395;48.132;11.608;2022-09-17T10:33:32;11.60;14.90
827;DHT22;395;48.132;11.608;2022-09-17T10:35:59;11.80;14.90
827;DHT22;395;48.132;11.608;2022-09-17T10:40:52;11.50;16.50
827;DHT22;395;48.132;11.608;2022-09-17T10:43:21;11.50;17.70
827;DHT22;395;48.132;11.608;2022-09-17T10:45:58;11.70;16.70
827;DHT22;395;48.132;11.608;2022-09-17T10:48:29;11.80;17.50
827;DHT22;395;48.132;11.608;2022-09-17T10:50:56;11.70;14.80
827;DHT22;395;48.132;11.608;2022-09-17T10:53:24;11.70;14.30
827;DHT22;395;48.132;11.608;2022-09-17T10:56:17;11.90;15.40
827;DHT22;395;48.132;11.608;2022-09-17T10:58:53;12.00;16.00
827;DHT22;395;48.132;11.608;2022-09-17T11:09:41;12.30;12.50
827;DHT22;395;48.132;11.608;2022-09-17T11:21:08;12.50;12.60
827;DHT22;395;48.132;11.608;2022-09-17T11:30:06;12.60;11.50
827;DHT22;395;48.132;11.608;2022-09-17T11:32:46;12.60;9.80
827;DHT22;395;48.132;11.608;2022-09-17T11:35:23;12.50;10.10
827;DHT22;395;48.132;11.608;2022-09-17T11:43:46;12.30;11.10
827;DHT22;395;48.132;11.608;2022-09-17T11:46:20;12.20;13.90
827;DHT22;395;48.132;11.608;2022-09-17T11:51:51;12.00;14.20
827;DHT22;395;48.132;11.608;2022-09-17T11:54:32;12.20;15.30
827;DHT22;395;48.132;11.608;2022-09-17T12:02:52;12.70;13.30
827;DHT22;395;48.132;11.608;2022-09-17T12:05:24;12.80;11.60
827;DHT22;395;48.132;11.608;2022-09-17T12:11:11;12.60;10.00
827;DHT22;395;48.132;11.608;2022-09-17T12:13:46;12.60;11.30
827;DHT22;395;48.132;11.608;2022-09-17T12:19:21;12.30;12.10
827;DHT22;395;48.132;11.608;2022-09-17T12:21:59;12.30;13.90
827;DHT22;395;48.132;11.608;2022-09-17T12:24:27;12.20;14.00
827;DHT22;395;48.132;11.608;2022-09-17T12:35:17;12.20;8.80
827;DHT22;395;48.132;11.608;2022-09-17T12:38:09;12.30;10.20
827;DHT22;395;48.132;11.608;2022-09-17T12:46:12;12.70;5.40
827;DHT22;395;48.132;11.608;2022-09-17T12:49:16;12.80;5.40
827;DHT22;395;48.132;11.608;2022-09-17T12:51:58;12.90;5.50
827;DHT22;395;48.132;11.608;2022-09-17T12:57:48;12.60;2.10
827;DHT22;395;48.132;11.608;2022-09-17T13:00:16;12.80;4.20
827;DHT22;395;48.132;11.608;2022-09-17T13:02:47;12.60;5.30
827;DHT22;395;48.132;11.608;2022-09-17T13:18:51;12.50;5.20
827;DHT22;395;48.132;11.608;2022-09-17T13:21:36;12.30;6.10
827;DHT22;395;48.132;11.608;2022-09-17T13:24:17;12.30;7.50
827;DHT22;395;48.132;11.608;2022-09-17T13:26:43;12.30;7.60
827;DHT22;395;48.132;11.608;2022-09-17T13:29:10;12.30;7.70
827;DHT22;395;48.132;11.608;2022-09-17T13:34:27;12.40;9.20
827;DHT22;395;48.132;11.608;2022-09-17T13:37:19;12.50;7.70
827;DHT22;395;48.132;11.608;2022-09-17T13:39:46;12.50;6.80
827;DHT22;395;48.132;11.608;2022-09-17T13:44:45;12.60;7.50
827;DHT22;395;48.132;11.608;2022-09-17T13:49:54;12.50;6.70
827;DHT22;395;48.132;11.608;2022-09-17T13:52:33;12.60;7.50
827;DHT22;395;48.132;11.608;2022-09-17T13:55:00;12.80;6.60
827;DHT22;395;48.132;11.608;2022-09-17T13:57:29;12.80;7.50
827;DHT22;395;48.132;11.608;2022-09-17T13:59:59;13.00;7.90
827;DHT22;395;48.132;11.608;2022-09-17T14:02:26;13.10;6.20
827;DHT22;395;48.132;11.608;2022-09-17T14:04:54;13.30;5.00
827;DHT22;395;48.132;11.608;2022-09-17T14:21:10;13.80;1.00
827;DHT22;395;48.132;11.608;2022-09-17T14:23:44;14.00;1.00
827;DHT22;395;48.132;11.608;2022-09-17T14:29:07;14.10;1.00
827;DHT22;395;48.132;11.608;2022-09-17T14:31:38;14.20;1.00
827;DHT22;395;48.132;11.608;2022-09-17T14:34:08;14.20;1.00
827;DHT22;395;48.132;11.608;2022-09-17T14:36:38;14.00;1.00
827;DHT22;395;48.132;11.608;2022-09-17T14:39:14;14.00;1.00
827;DHT22;395;48.132;11.608;2022-09-17T14:41:43;13.90;1.00
827;DHT22;395;48.132;11.608;2022-09-17T14:44:35;13.90;1.00
827;DHT22;395;48.132;11.608;2022-09-17T14:47:02;13.80;1.00
827;DHT22;395;48.132;11.608;2022-09-17T14:49:34;13.70;1.00
827;DHT22;395;48.132;11.608;2022-09-17T14:52:01;13.70;1.00
827;DHT22;395;48.132;11.608;2022-09-17T14:54:28;13.70;1.00
827;DHT22;395;48.132;11.608;2022-09-17T14:56:58;13.50;1.00
827;DHT22;395;48.132;11.608;2022-09-17T15:02:27;13.40;1.00
827;DHT22;395;48.132;11.608;2022-09-17T15:04:53;13.40;1.00
827;DHT22;395;48.132;11.608;2022-09-17T15:07:20;13.50;1.00
827;DHT22;395;48.132;11.608;2022-09-17T15:09:46;13.40;1.00
827;DHT22;395;48.132;11.608;2022-09-17T15:12:16;13.20;1.00
827;DHT22;395;48.132;11.608;2022-09-17T15:14:45;13.00;1.00
827;DHT22;395;48.132;11.608;2022-09-17T15:17:14;12.90;1.00
827;DHT22;395;48.132;11.608;2022-09-17T15:19:48;13.00;1.00
827;DHT22;395;48.132;11.608;2022-09-17T15:22:27;13.00;1.00
827;DHT22;395;48.132;11.608;2022-09-17T15:25:04;12.90;1.00
827;DHT22;395;48.132;11.608;2022-09-17T15:27:40;12.70;1.00
827;DHT22;395;48.132;11.608;2022-09-17T15:30:20;12.70;1.00
827;DHT22;395;48.132;11.608;2022-09-17T15:32:54;12.50;1.00
827;DHT22;395;48.132;11.608;2022-09-17T15:37:56;12.50;1.00
827;DHT22;395;48.132;11.608;2022-09-17T15:40:27;12.60;1.00
827;DHT22;395;48.132;11.608;2022-09-17T15:45:32;12.60;1.00
827;DHT22;395;48.132;11.608;2022-09-17T15:48:03;12.50;1.00
827;DHT22;395;48.132;11.608;2022-09-17T15:50:34;12.40;1.00
827;DHT22;395;48.132;11.608;2022-09-17T15:55:36;12.40;1.00
827;DHT22;395;48.132;11.608;2022-09-17T16:08:54;12.30;1.00
827;DHT22;395;48.132;11.608;2022-09-17T16:11:22;12.40;1.00
827;DHT22;395;48.132;11.608;2022-09-17T16:13:49;12.30;1.00
827;DHT22;395;48.132;11.608;2022-09-17T16:16:18;12.20;1.00
827;DHT22;395;48.132;11.608;2022-09-17T16:18:44;12.00;1.00
827;DHT22;395;48.132;11.608;2022-09-17T16:21:11;11.90;1.00
827;DHT22;395;48.132;11.608;2022-09-17T16:23:37;11.90;1.00
827;DHT22;395;48.132;11.608;2022-09-17T16:26:03;12.00;1.00
827;DHT22;395;48.132;11.608;2022-09-17T16:28:29;11.90;1.00
827;DHT22;395;48.132;11.608;2022-09-17T16:30:56;11.90;1.00
827;DHT22;395;48.132;11.608;2022-09-17T16:33:22;11.80;1.00
827;DHT22;395;48.132;11.608;2022-09-17T16:35:48;11.80;1.00
827;DHT22;395;48.132;11.608;2022-09-17T16:38:13;11.90;1.00
827;DHT22;395;48.132;11.608;2022-09-17T16:40:43;12.00;1.00
827;DHT22;395;48.132;11.608;2022-09-17T16:43:11;11.90;1.00
827;DHT22;395;48.132;11.608;2022-09-17T16:45:37;11.90;1.00
827;DHT22;395;48.132;11.608;2022-09-17T16:48:04;12.00;1.00
827;DHT22;395;48.132;11.608;2022-09-17T16:50:30;11.90;1.00
827;DHT22;395;48.132;11.608;2022-09-17T16:52:56;11.90;1.00
827;DHT22;395;48.132;11.608;2022-09-17T16:55:21;12.00;1.00
827;DHT22;395;48.132;11.608;2022-09-17T16:57:47;12.10;1.00
827;DHT22;395;48.132;11.608;2022-09-17T17:00:16;12.00;1.00
827;DHT22;395;48.132;11.608;2022-09-17T17:02:44;11.90;1.00
827;DHT22;395;48.132;11.608;2022-09-17T17:05:15;11.90;1.00
827;DHT22;395;48.132;11.608;2022-09-17T17:07:40;11.80;1.00
827;DHT22;395;48.132;11.608;2022-09-17T17:10:07;11.90;1.00
827;DHT22;395;48.132;11.608;2022-09-17T17:12:36;11.90;1.00
827;DHT22;395;48.132;11.608;2022-09-17T17:15:04;11.90;1.00
827;DHT22;395;48.132;11.608;2022-09-17T17:17:33;11.90;1.00
827;DHT22;395;48.132;11.608;2022-09-17T17:20:00;11.80;1.70
827;DHT22;395;48.132;11.608;2022-09-17T17:22:28;11.80;2.20
827;DHT22;395;48.132;11.608;2022-09-17T17:24:54;11.80;2.40
827;DHT22;395;48.132;11.608;2022-09-17T17:27:20;11.90;2.70
827;DHT22;395;48.132;11.608;2022-09-17T17:29:45;11.70;3.30
827;DHT22;395;48.132;11.608;2022-09-17T17:32:11;11.70;3.30
827;DHT22;395;48.132;11.608;2022-09-17T17:34:37;11.80;3.40
827;DHT22;395;48.132;11.608;2022-09-17T17:37:02;11.70;3.90
827;DHT22;395;48.132;11.608;2022-09-17T17:39:28;11.80;4.70
827;DHT22;395;48.132;11.608;2022-09-17T17:41:53;11.70;4.70
827;DHT22;395;48.132;11.608;2022-09-17T17:44:20;11.60;3.20
827;DHT22;395;48.132;11.608;2022-09-17T17:46:46;11.60;3.60
827;DHT22;395;48.132;11.608;2022-09-17T17:49:11;11.60;3.50
827;DHT22;395;48.132;11.608;2022-09-17T17:51:37;11.60;2.80
827;DHT22;395;48.132;11.608;2022-09-17T17:54:03;11.50;2.40
827;DHT22;395;48.132;11.608;2022-09-17T17:56:28;11.50;2.60
827;DHT22;395;48.132;11.608;2022-09-17T17:58:55;11.40;2.60
827;DHT22;395;48.132;11.608;2022-09-17T18:01:25;11.40;2.70
827;DHT22;395;48.132;11.608;2022-09-17T18:03:58;11.50;2.90
827;DHT22;395;48.132;11.608;2022-09-17T18:06:25;11.50;2.60
827;DHT22;395;48.132;11.608;2022-09-17T18:08:51;11.50;2.90
827;DHT22;395;48.132;11.608;2022-09-17T18:11:17;11.50;2.50
827;DHT22;395;48.132;11.608;2022-09-17T18:13:43;11.50;2.70
827;DHT22;395;48.132;11.608;2022-09-17T18:16:11;11.50;3.20
827;DHT22;395;48.132;11.608;2022-09-17T18:18:42;11.50;2.70
827;DHT22;395;48.132;11.608;2022-09-17T18:21:13;11.50;3.40
827;DHT22;395;48.132;11.608;2022-09-17T18:23:40;11.50;3.00
827;DHT22;395;48.132;11.608;2022-09-17T18:26:15;11.60;4.50
827;DHT22;395;48.132;11.608;2022-09-17T18:28:41;11.50;4.00
827;DHT22;395;48.132;11.608;2022-09-17T18:31:09;11.60;3.50
827;DHT22;395;48.132;11.608;2022-09-17T18:33:37;11.60;3.70
827;DHT22;395;48.132;11.608;2022-09-17T18:36:04;11.60;3.40
827;DHT22;395;48.132;11.608;2022-09-17T18:38:30;11.60;3.70
827;DHT22;395;48.132;11.608;2022-09-17T18:41:09;11.60;3.70
827;DHT22;395;48.132;11.608;2022-09-17T18:43:35;11.60;4.30
827;DHT22;395;48.132;11.608;2022-09-17T18:46:02;11.70;4.70
827;DHT22;395;48.132;11.608;2022-09-17T18:48:28;11.60;4.60
827;DHT22;395;48.132;11.608;2022-09-17T18:51:03;11.60;4.50
827;DHT22;395;48.132;11.608;2022-09-17T18:53:31;11.60;4.50
827;DHT22;395;48.132;11.608;2022-09-17T18:58:30;11.60;4.60
827;DHT22;395;48.132;11.608;2022-09-17T19:00:56;11.60;6.10
827;DHT22;395;48.132;11.608;2022-09-17T19:03:21;11.50;7.60
827;DHT22;395;48.132;11.608;2022-09-17T19:05:47;11.50;7.70
827;DHT22;395;48.132;11.608;2022-09-17T19:08:13;11.50;8.00
827;DHT22;395;48.132;11.608;2022-09-17T19:10:38;11.50;8.50
827;DHT22;395;48.132;11.608;2022-09-17T19:13:04;11.40;8.70
827;DHT22;395;48.132;11.608;2022-09-17T19:15:32;11.50;8.80
827;DHT22;395;48.132;11.608;2022-09-17T19:17:57;11.50;9.10
827;DHT22;395;48.132;11.608;2022-09-17T19:20:24;11.50;8.80
827;DHT22;395;48.132;11.608;2022-09-17T19:22:50;11.50;8.70
827;DHT22;395;48.132;11.608;2022-09-17T19:25:16;11.50;9.20
827;DHT22;395;48.132;11.608;2022-09-17T19:27:44;11.50;9.50
827;DHT22;395;48.132;11.608;2022-09-17T19:30:10;11.50;9.40
827;DHT22;395;48.132;11.608;2022-09-17T19:32:36;11.50;9.00
827;DHT22;395;48.132;11.608;2022-09-17T19:35:03;11.60;9.00
827;DHT22;395;48.132;11.608;2022-09-17T19:37:29;11.60;9.10
827;DHT22;395;48.132;11.608;2022-09-17T19:39:55;11.50;9.20
827;DHT22;395;48.132;11.608;2022-09-17T19:42:21;11.50;9.30
827;DHT22;395;48.132;11.608;2022-09-17T19:44:46;11.50;8.80
827;DHT22;395;48.132;11.608;2022-09-17T19:47:12;11.50;9.50
827;DHT22;395;48.132;11.608;2022-09-17T19:49:37;11.50;9.40
827;DHT22;395;48.132;11.608;2022-09-17T19:52:04;11.60;9.30
827;DHT22;395;48.132;11.608;2022-09-17T19:54:30;11.60;9.20
827;DHT22;395;48.132;11.608;2022-09-17T19:56:55;11.60;9.20
827;DHT22;395;48.132;11.608;2022-09-17T19:59:21;11.60;9.50
827;DHT22;395;48.132;11.608;2022-09-17T20:01:47;11.60;9.50
827;DHT22;395;48.132;11.608;2022-09-17T20:04:12;11.60;9.30
827;DHT22;395;48.132;11.608;2022-09-17T20:06:38;11.70;9.10
827;DHT22;395;48.132;11.608;2022-09-17T20:09:04;11.60;8.60
827;DHT22;395;48.132;11.608;2022-09-17T20:11:29;11.60;9.00